Ana Sayfa
METAR-TAF:

METAR-TAF

Havaalanları :

Dakar, Senegal

Enlem: 14-44N, Boylam: 017-30W, yükseklik: 27 m

Güncel hava durumu gözlemi

Rapor saat 20:00 UTC de 27 dakika önce yapıldı.
Rüzgar kuzeybatıdan 6 kt
Sıcaklık 27°C
Nem 74%
Basınç 1014 hPa
Görüş mesafesi: 8000 m

METAR: GOOY 152000Z 32006KT 8000 NSC 27/22 Q1014

Saat: 20:27 (20:27 UTC)

Tahmin

Rapor saat 17:30 UTC de 2 saat ve 57 dakika önce yapıldı.
Ayın 15'si saat 18 UTC'den ayın 16'si saat 24 UTC'ye kadar geçerli Tahmin
Rüzgar kuzeybatıdan 8 kt
Görüş mesafesi 10 km veya daha fazla
1300 ft yükseklikte parçalı bulutlu
Olasılık 30% :
Geçici
ayın 16'si saat 01 UTC'den ayın 16'si saat 07 UTC'ye kadar
Görüş mesafesi: 4000 m
1000 ft yükseklikte parçalı çok bulutlu
2500 ft yükseklikte az bulutlu, Kümülonimbus.
gök gürültülü fırtına, yağmur

TAF: GOOY 151730Z 1518/1624 32008KT 9999 SCT013 PROB30 TEMPO 1601/1607 4000 TSRA BKN010 FEW025CB

4.000'den fazla havaalanı için hava durumu gözlemleri ve tahminleri (METAR ve TAF raporları).

Kullanılabilir istasyonlar harita üzerinde sarı ve kırmızı noktalarla gösterilir.

İstasyonun adını görmek için fareyi noktanın üzerinde gezdirin.

Sonrasında hava gözlem ve tahminlerini görmek için tıklayın.

Haritayı değiştirmek için: yaklaştırmak için siyah artı işaretli yeşil düğmeye ve uzaklaştırmak için de eksi işaretli düğmeye hızla tıklayın; bitişik haritalar için yeşil okları kullanın.


METAR-TAF: